Data for 06/17/2015

Time Sea-Level Adjusted Pressure Absolute Pressure Temperature Relative Humidity Dew Point   
(mb) (inHg) (mb) (inHg) (C) (F) (%) (C) (F)
00:05 1020 30.12 849 25.07 12.4 54.3 62 5.4 41.7
00:10 1020 30.12 849 25.07 12.6 54.6 61 5.4 41.7
00:15 1020 30.12 849 25.07 12.6 54.7 61 5.3 41.5
00:20 1020 30.12 849 25.07 12.7 54.8 60 5.3 41.5
00:25 1020 30.12 849 25.07 12.8 55 60 5.3 41.5
00:30 1020 30.12 849 25.07 12.8 55 61 5.4 41.8
00:35 1020 30.12 849 25.07 12.6 54.7 61 5.3 41.5
00:40 1020 30.12 849 25.07 12.7 54.9 61 5.3 41.6
00:45 1020 30.12 849 25.07 12.7 54.9 60 5.3 41.6
00:50 1020 30.12 849 25.07 12.7 54.8 61 5.4 41.8
00:55 1020 30.12 849 25.07 12.6 54.7 61 5.4 41.8
01:00 1020 30.12 849 25.07 12.6 54.7 61 5.4 41.6
01:05 1020 30.12 849 25.07 12.7 54.8 61 5.5 41.8
01:10 1020 30.12 849 25.07 12.7 54.8 62 5.5 42
01:15 1020 30.12 849 25.07 12.6 54.6 62 5.6 42.1
01:20 1020 30.12 849 25.07 12.3 54.2 64 5.7 42.3
01:25 1020 30.12 849 25.07 12.2 53.9 64 5.6 42.1
01:30 1020 30.12 849 25.07 12.2 53.9 64 5.5 41.9
01:35 1020 30.12 849 25.07 12.2 54 63 5.5 41.8
01:40 1020 30.12 849 25.07 12.3 54.1 63 5.6 42.1
01:45 1020 30.12 849 25.07 12.3 54.1 64 5.6 42.1
01:50 1020 30.12 849 25.07 12.3 54.1 64 5.7 42.2
01:55 1020 30.12 849 25.07 12.3 54.2 63 5.5 42
02:00 1020 30.12 849 25.07 12.5 54.5 62 5.5 41.8
02:05 1020 30.12 849 25.07 12.6 54.7 62 5.6 42
02:10 1020 30.12 849 25.07 12.5 54.6 63 5.7 42.2
02:15 1020 30.12 849 25.07 12.4 54.4 63 5.7 42.3
02:20 1020 30.12 849 25.07 12.2 53.9 65 5.7 42.3
02:25 1020 30.12 849 25.07 12.1 53.7 64 5.6 42.1
02:30 1020 30.12 849 25.07 12.2 53.9 63 5.5 41.8
02:35 1020 30.12 849 25.07 12.5 54.4 62 5.4 41.7
02:40 1020 30.12 849 25.07 12.8 55.1 61 5.5 41.9
02:45 1020 30.12 849 25.07 12.7 54.9 62 5.7 42.2
02:50 1020 30.12 849 25.07 12.6 54.6 63 5.7 42.3
02:55 1020 30.12 849 25.07 12.3 54.2 64 5.8 42.4
03:00 1020 30.12 849 25.07 12 53.6 65 5.7 42.2
03:05 1020 30.12 849 25.07 11.8 53.2 65 5.4 41.8
03:10 1020 30.12 849 25.07 11.8 53.2 65 5.4 41.7
03:15 1019 30.09 849 25.07 11.9 53.4 64 5.4 41.7
03:20 1019 30.09 849 25.07 11.9 53.5 65 5.6 42.1
03:25 1019 30.09 849 25.07 11.9 53.4 66 5.7 42.3
03:30 1019 30.09 849 25.07 11.9 53.4 66 5.7 42.3
03:35 1019 30.09 849 25.07 11.8 53.2 65 5.5 41.8
03:40 1019 30.09 849 25.07 11.9 53.3 64 5.3 41.6
03:45 1019 30.09 849 25.07 11.9 53.5 64 5.4 41.7
03:50 1019 30.09 849 25.07 12.1 53.7 63 5.4 41.6
03:55 1019 30.09 849 25.07 12.2 53.9 64 5.7 42.2
04:00 1019 30.09 849 25.07 12 53.6 65 5.7 42.3
04:05 1019 30.09 849 25.07 11.9 53.5 66 5.8 42.4
04:10 1019 30.09 849 25.07 11.9 53.4 65 5.7 42.2
04:15 1019 30.09 849 25.07 12 53.6 66 5.9 42.5
04:20 1020 30.12 849 25.07 12.1 53.9 64 5.6 42.1
04:25 1020 30.12 849 25.07 12.2 54 66 6 42.9
04:30 1020 30.12 849 25.07 12.1 53.8 65 5.7 42.3
04:35 1020 30.12 849 25.07 12.2 53.9 66 6 42.8
04:40 1020 30.12 849 25.07 11.9 53.4 66 5.9 42.6
04:45 1020 30.12 849 25.07 11.6 52.8 67 5.7 42.2
04:50 1020 30.12 849 25.07 11.6 52.8 67 5.6 42.1
04:55 1020 30.12 849 25.07 11.6 52.9 66 5.6 42.1
05:00 1020 30.12 849 25.07 11.6 53 67 5.7 42.2
05:05 1020 30.12 849 25.07 11.5 52.7 68 5.7 42.3
05:10 1020 30.12 849 25.07 11.5 52.6 67 5.6 42.1
05:15 1020 30.12 849 25.07 11.5 52.7 67 5.7 42.2
05:20 1020 30.12 849 25.07 11.5 52.7 67 5.6 42.2
05:25 1020 30.12 849 25.07 11.5 52.8 66 5.5 42
05:30 1020 30.12 849 25.07 11.6 52.9 65 5.4 41.8
05:35 1020 30.12 849 25.07 11.5 52.7 66 5.4 41.7
05:40 1020 30.12 849 25.07 11.2 52.2 66 5.1 41.2
05:45 1020 30.12 849 25.07 11.2 52.2 64 4.7 40.5
05:50 1020 30.12 849 25.07 11.3 52.3 63 4.6 40.3
05:55 1020 30.12 849 25.07 11.7 53 63 4.9 40.8
06:00 1020 30.12 849 25.07 11.4 52.5 66 5.3 41.5
06:05 1020 30.12 849 25.07 11 51.9 67 5.1 41.3
06:10 1020 30.12 849 25.07 11.1 51.9 67 5.1 41.2
06:15 1020 30.12 849 25.07 11.5 52.6 66 5.3 41.5
06:20 1020 30.12 849 25.07 11.9 53.3 65 5.6 42.1
06:25 1020 30.12 849 25.07 12.2 53.9 65 5.8 42.5
06:30 1020 30.12 849 25.07 12.5 54.4 65 6.1 42.9
06:35 1020 30.12 849 25.07 12.8 55 64 6.2 43.1
06:40 1020 30.12 849 25.07 13 55.4 64 6.5 43.7
06:45 1020 30.12 849 25.07 13.3 55.9 62 6.1 43.1
06:50 1020 30.12 849 25.07 13.5 56.4 61 6.3 43.4
06:55 1020 30.12 849 25.07 13.8 56.8 62 6.6 43.9
07:00 1020 30.12 849 25.07 13.9 57 61 6.6 43.8
07:05 1020 30.12 849 25.07 13.9 57 61 6.6 43.9
07:10 1020 30.12 849 25.07 14.1 57.4 59 6.4 43.5
07:15 1020 30.12 849 25.07 14.4 57.9 59 6.5 43.6
07:20 1020 30.12 849 25.07 14.7 58.5 58 6.6 43.9
07:25 1020 30.12 849 25.07 14.9 58.9 57 6.6 43.9
07:30 1020 30.12 849 25.07 15 58.9 57 6.6 43.8
07:35 1020 30.12 849 25.07 15.2 59.4 55 6.4 43.5
07:40 1020 30.12 849 25.07 15.6 60.1 56 6.9 44.4
07:45 1020 30.12 849 25.07 15.8 60.4 53 6.4 43.5
07:50 1020 30.12 849 25.07 16 60.8 52 6.4 43.5
07:55 1020 30.12 849 25.07 16.4 61.6 51 6.4 43.6
08:00 1020 30.12 849 25.07 16.7 62 51 6.6 44
08:05 1020 30.12 849 25.07 17.1 62.7 46 5.6 42.1
08:10 1020 30.12 849 25.07 16.7 62.1 47 5.6 42
08:15 1020 30.12 849 25.07 17 62.6 47 5.8 42.4
08:20 1020 30.12 849 25.07 17.2 63 46 5.5 41.9
08:25 1020 30.12 849 25.07 17.5 63.5 45 5.5 41.9
08:30 1020 30.12 849 25.07 17.8 64.1 44 5.5 41.8
08:35 1020 30.12 849 25.07 17.5 63.5 45 5.6 42
08:40 1020 30.12 849 25.07 17.8 64 44 5.6 42
08:45 1020 30.12 849 25.07 18.8 65.9 43 6 42.8
08:50 1020 30.12 849 25.07 18.7 65.7 44 6.4 43.5
08:55 1020 30.12 849 25.07 18.1 64.6 43 5.4 41.8
09:00 1020 30.12 849 25.07 18.6 65.5 41 5.4 41.7
09:05 1020 30.12 849 25.07 19.2 66.5 41 5.8 42.4
09:10 1020 30.12 849 25.07 18.7 65.6 43 5.9 42.6
09:15 1020 30.12 849 25.07 18.7 65.7 41 5.4 41.7
09:20 1020 30.12 849 25.07 19.2 66.6 39 5.2 41.3
09:25 1020 30.12 849 25.07 19.8 67.6 38 5.2 41.4
09:30 1020 30.12 849 25.07 20.8 69.4 36 5.5 41.9
09:35 1020 30.12 849 25.07 20.7 69.2 37 5.5 41.9
09:40 1019 30.09 849 25.07 21.1 69.9 36 5.8 42.4
09:45 1019 30.09 849 25.07 20 67.9 37 4.9 40.7
09:50 1019 30.09 849 25.07 21.1 70 34 4.8 40.7
09:55 1019 30.09 849 25.07 21.2 70.2 36 5.7 42.2
10:00 1019 30.09 849 25.07 21.1 69.9 35 5.2 41.3
10:05 1019 30.09 848 25.04 20.9 69.6 36 5.6 42.1
10:10 1019 30.09 848 25.04 21.3 70.4 35 5.3 41.6
10:15 1019 30.09 848 25.04 22.2 72 33 5.5 41.9
10:20 1019 30.09 848 25.04 22.3 72.1 34 5.9 42.7
10:25 1019 30.09 848 25.04 21.7 71 34 5.4 41.7
10:30 1019 30.09 848 25.04 21.6 71 35 5.7 42.2
10:35 1019 30.09 848 25.04 22.6 72.7 33 5.7 42.3
10:40 1019 30.09 848 25.04 23.2 73.7 31 5.3 41.6
10:45 1019 30.09 848 25.04 22.5 72.5 33 5.8 42.5
10:50 1019 30.09 848 25.04 22.8 73 31 5.1 41.1
10:55 1019 30.09 848 25.04 23 73.4 32 5.4 41.8
11:00 1019 30.09 848 25.04 22.6 72.7 32 5.1 41.1
11:05 1019 30.09 848 25.04 23.1 73.5 31 5.1 41.1
11:10 1019 30.09 848 25.04 22.8 73 30 4.4 39.8
11:15 1019 30.09 848 25.04 23.2 73.7 31 5.5 41.9
11:20 1019 30.09 848 25.04 23.2 73.8 31 5.2 41.3
11:25 1019 30.09 848 25.04 23.6 74.4 31 5.6 42.1
11:30 1019 30.09 848 25.04 23.4 74.1 33 6.6 43.8
11:35 1019 30.09 848 25.04 22.7 72.9 34 6.1 43
11:40 1019 30.09 848 25.04 23.8 74.9 32 6.4 43.5
11:45 1019 30.09 848 25.04 24.1 75.4 32 6.7 44.1
11:50 1019 30.09 848 25.04 24.1 75.4 31 6.2 43.2
11:55 1019 30.09 848 25.04 24.1 75.3 31 6.1 42.9
12:00 1019 30.09 848 25.04 24.2 75.6 30 5.9 42.7
12:05 1019 30.09 848 25.04 24.3 75.7 30 5.9 42.6
12:10 1019 30.09 848 25.04 24.3 75.8 30 5.9 42.6
12:15 1019 30.09 848 25.04 24.3 75.7 30 6 42.8
12:20 1019 30.09 848 25.04 25 77.1 28 5.5 41.9
12:25 1019 30.09 848 25.04 25.6 78.2 27 5.4 41.8
12:30 1019 30.09 848 25.04 25.5 78 28 6.2 43.1
12:35 1019 30.09 848 25.04 24.9 76.8 30 6.2 43.1
12:40 1019 30.09 848 25.04 24.7 76.4 28 5.2 41.4
12:45 1019 30.09 848 25.04 24.5 76.2 28 5.1 41.2
12:50 1019 30.09 848 25.04 24.8 76.7 28 5.2 41.3
12:55 1019 30.09 848 25.04 24.6 76.4 28 5 41
13:00 1019 30.09 848 25.04 24.1 75.3 27 4.4 39.9
13:05 1019 30.09 848 25.04 24.1 75.4 26 3.9 39
13:10 1018 30.06 848 25.04 24.1 75.3 28 4.5 40.1
13:15 1018 30.06 848 25.04 24 75.2 27 3.8 38.9
13:20 1018 30.06 848 25.04 24.6 76.3 26 4.1 39.4
13:25 1018 30.06 848 25.04 24.6 76.2 25 3.6 38.5
13:30 1018 30.06 848 25.04 25.2 77.4 23 2.6 36.7
13:35 1018 30.06 847 25.01 25.5 77.9 23 3 37.4
13:40 1018 30.06 847 25.01 25.6 78.1 23 3.1 37.5
13:45 1018 30.06 847 25.01 25.7 78.2 23 3.1 37.6
13:50 1018 30.06 847 25.01 25.9 78.5 24 3.8 38.8
13:55 1018 30.06 847 25.01 25.6 78.1 23 3.2 37.8
14:00 1018 30.06 847 25.01 25.3 77.6 24 3.3 38
14:05 1018 30.06 847 25.01 25.3 77.5 24 3.4 38.1
14:10 1018 30.06 847 25.01 25.3 77.5 23 2.8 37
14:15 1018 30.06 847 25.01 25.2 77.4 24 3.2 37.8
14:20 1018 30.06 847 25.01 25.3 77.5 23 3 37.4
14:25 1018 30.06 847 25.01 26.4 79.5 22 3.2 37.7
14:30 1018 30.06 847 25.01 26.1 79 23 3.3 38
14:35 1018 30.06 847 25.01 25.6 78.1 22 2.6 36.7
14:40 1018 30.06 847 25.01 26.1 79 20 1.8 35.2
14:45 1018 30.06 847 25.01 25.8 78.5 24 4.1 39.4
14:50 1018 30.06 847 25.01 24.7 76.5 25 3.4 38.1
14:55 1018 30.06 847 25.01 24.4 75.9 24 2.8 37
15:00 1018 30.06 847 25.01 24.4 75.8 25 3.1 37.5
15:05 1018 30.06 847 25.01 23.8 74.9 26 3.4 38.1
15:10 1018 30.06 847 25.01 24.2 75.5 25 3.1 37.6
15:15 1018 30.06 847 25.01 24.5 76.1 25 3.2 37.8
15:20 1018 30.06 847 25.01 24.8 76.6 24 3 37.3
15:25 1018 30.06 847 25.01 24.7 76.5 24 3 37.3
15:30 1018 30.06 847 25.01 25.1 77.3 24 3.4 38.2
15:35 1018 30.06 847 25.01 25.1 77.2 24 3.2 37.8
15:40 1018 30.06 847 25.01 25.4 77.7 23 3.2 37.7
15:45 1018 30.06 847 25.01 25.6 78.1 23 3.5 38.2
15:50 1018 30.06 847 25.01 25.1 77.2 22 2.4 36.3
15:55 1018 30.06 847 25.01 25.4 77.7 21 1.9 35.4
16:00 1018 30.06 847 25.01 25.6 78 22 2.5 36.4
16:05 1018 30.06 847 25.01 25.8 78.4 21 2.3 36.2
16:10 1018 30.06 847 25.01 25.3 77.6 22 2.5 36.6
16:15 1018 30.06 847 25.01 24.9 76.9 21 1.2 34.2
16:20 1018 30.06 847 25.01 24.5 76.1 22 1.7 35.1
16:25 1018 30.06 847 25.01 24.9 76.8 22 1.9 35.4
16:30 1018 30.06 847 25.01 24.6 76.3 23 2.1 35.8
16:35 1018 30.06 847 25.01 24.3 75.7 22 1.5 34.7
16:40 1018 30.06 847 25.01 24.4 76 21 0.8 33.4
16:45 1018 30.06 847 25.01 24.8 76.7 21 1.4 34.4
16:50 1018 30.06 847 25.01 25 77.1 21 1.2 34.1
16:55 1018 30.06 847 25.01 24.9 76.8 21 1.4 34.5
17:00 1018 30.06 847 25.01 24.8 76.7 22 1.6 34.9
17:05 1018 30.06 847 25.01 24.9 76.7 22 1.8 35.2
17:10 1018 30.06 847 25.01 24.9 76.9 22 2.1 35.7
17:15 1018 30.06 847 25.01 25 76.9 23 2.7 36.8
17:20 1018 30.06 847 25.01 24.9 76.9 22 2.2 36
17:25 1018 30.06 847 25.01 25.3 77.6 22 2.6 36.7
17:30 1018 30.06 847 25.01 25.5 77.8 21 1.6 34.8
17:35 1018 30.06 847 25.01 24.8 76.6 22 2 35.6
17:40 1018 30.06 847 25.01 24.9 76.7 22 1.7 35
17:45 1018 30.06 847 25.01 25 76.9 22 2.3 36.1
17:50 1018 30.06 847 25.01 24.8 76.6 22 2.2 35.9
17:55 1018 30.06 847 25.01 24.5 76.1 23 2.1 35.8
18:00 1018 30.06 847 25.01 24.4 75.9 23 2.2 36
18:05 1018 30.06 847 25.01 24.4 75.9 23 2.3 36.1
18:10 1018 30.06 847 25.01 24.4 75.9 23 2.3 36.1
18:15 1018 30.06 847 25.01 24.3 75.8 24 2.5 36.5
18:20 1018 30.06 847 25.01 24.4 75.9 23 2.3 36.1
18:25 1018 30.06 847 25.01 24.3 75.7 24 2.4 36.4
18:30 1018 30.06 847 25.01 24 75.2 24 2.3 36.1
18:35 1018 30.06 847 25.01 23.9 74.9 24 2.3 36.1
18:40 1018 30.06 847 25.01 23.5 74.3 25 2.4 36.3
18:45 1018 30.06 847 25.01 23.4 74 25 2.5 36.6
18:50 1018 30.06 847 25.01 23.4 74 25 2.5 36.5
18:55 1018 30.06 847 25.01 23.2 73.8 25 2.5 36.5
19:00 1018 30.06 847 25.01 23.3 73.9 26 3 37.3
19:05 1018 30.06 848 25.04 23.3 74 25 2.5 36.5
19:10 1018 30.06 848 25.04 23.2 73.8 27 3.2 37.8
19:15 1018 30.06 848 25.04 23.2 73.7 28 4 39.2
19:20 1018 30.06 848 25.04 23 73.4 29 4.4 39.9
19:25 1018 30.06 848 25.04 22.9 73.2 30 4.6 40.3
19:30 1018 30.06 848 25.04 22.7 72.8 31 5 41
19:35 1019 30.09 848 25.04 22.5 72.4 32 5.1 41.2
19:40 1018 30.06 848 25.04 22.3 72.1 38 7.6 45.8
19:45 1019 30.09 848 25.04 22 71.5 41 8.2 46.7
19:50 1019 30.09 848 25.04 21.7 71 40 7.5 45.5
19:55 1019 30.09 848 25.04 21.2 70.2 40 7.2 44.9
20:00 1019 30.09 848 25.04 21 69.8 36 5.5 41.9
20:05 1019 30.09 848 25.04 21.3 70.3 36 5.7 42.3
20:10 1019 30.09 848 25.04 21.3 70.4 37 6.2 43.1
20:15 1019 30.09 848 25.04 21.3 70.4 32 4.3 39.7
20:20 1019 30.09 848 25.04 21.2 70.2 38 6.5 43.8
20:25 1019 30.09 848 25.04 20.7 69.3 35 5 41
20:30 1019 30.09 848 25.04 20.6 69.1 38 5.9 42.7
20:35 1019 30.09 848 25.04 20.2 68.4 39 6.1 43
20:40 1019 30.09 848 25.04 20 67.9 38 5.5 41.9
20:45 1019 30.09 848 25.04 19.8 67.7 39 5.6 42
20:50 1019 30.09 848 25.04 19.7 67.4 39 5.5 41.9
20:55 1019 30.09 848 25.04 19.6 67.2 38 5.1 41.2
21:00 1019 30.09 848 25.04 19.7 67.4 37 4.7 40.5
21:05 1019 30.09 848 25.04 19.8 67.7 36 4.4 40
21:10 1019 30.09 848 25.04 19.9 67.9 36 4.6 40.4
21:15 1019 30.09 849 25.07 19.8 67.6 42 6.6 43.8
21:20 1020 30.12 849 25.07 19.5 67 45 7.5 45.5
21:25 1020 30.12 849 25.07 19.2 66.5 45 7.2 45
21:30 1020 30.12 849 25.07 19 66.2 45 7 44.6
21:35 1020 30.12 849 25.07 18.8 65.8 45 6.8 44.3
21:40 1020 30.12 849 25.07 18.7 65.7 44 6.5 43.7
21:45 1020 30.12 849 25.07 18.6 65.6 45 6.6 43.9
21:50 1020 30.12 849 25.07 18.5 65.3 46 6.6 44
21:55 1020 30.12 849 25.07 18.3 65 46 6.7 44
22:00 1020 30.12 849 25.07 18.2 64.8 47 6.8 44.2
22:05 1020 30.12 849 25.07 18 64.5 48 6.9 44.4
22:10 1020 30.12 849 25.07 17.9 64.2 48 6.9 44.5
22:15 1020 30.12 849 25.07 17.8 64 49 7 44.6
22:20 1020 30.12 849 25.07 17.8 64 49 6.9 44.5
22:25 1020 30.12 849 25.07 17.8 64 49 7 44.6
22:30 1020 30.12 849 25.07 17.7 63.8 49 7 44.6
22:35 1020 30.12 849 25.07 17.6 63.6 50 7 44.7
22:40 1020 30.12 849 25.07 17.6 63.6 50 7 44.6
22:45 1020 30.12 849 25.07 17.5 63.6 50 7.2 45
22:50 1020 30.12 849 25.07 17.5 63.4 51 7.3 45.1
22:55 1020 30.12 849 25.07 17.4 63.3 51 7.4 45.3
23:00 1020 30.12 849 25.07 17.4 63.2 52 7.4 45.3
23:05 1020 30.12 849 25.07 17.4 63.3 52 7.4 45.4
23:10 1020 30.12 849 25.07 17.4 63.3 52 7.6 45.7
23:15 1020 30.12 849 25.07 17.3 63.2 53 7.7 45.9
23:20 1020 30.12 849 25.07 17.2 63 54 7.8 46.1
23:25 1020 30.12 849 25.07 17.1 62.8 54 7.9 46.3
23:30 1020 30.12 849 25.07 17 62.6 55 7.9 46.3
23:35 1020 30.12 849 25.07 17 62.5 56 8.1 46.6
23:40 1020 30.12 849 25.07 16.9 62.3 57 8.3 46.9
23:45 1020 30.12 849 25.07 16.7 62.1 57 8.3 46.9
23:50 1020 30.12 849 25.07 16.7 62 57 8.3 46.9
23:55 1020 30.12 849 25.07 16.6 61.9 58 8.3 46.9
24:00 1020 30.12 849 25.07 16.5 61.7 57 8.1 46.6